Cedar Point, North Carolina
Current Conditions -  °F | °C
As of 12:57 AM on Wednesday 22 Oct 2014 (Local Time) from KNJM Reporting Station
Clear Clear  
Wind Chill: 62°   Ceiling: Unl
Heat Index: 62°   Visibility: 10mi
Dew Point: 52°   Wind: 12mph
Humidity: 70%   Direction: 340°NNW
Pressure: 29.86"   Gusts: 18mph
Location:  34.7017°N, 77.1399°W
Report Text: KNJM 220457Z AUTO 34010G16KT 10SM CLR 17/11 A2986 RMK AO2 SLP116 T01670111 402390128 TSNO $
Loading
Personal Weather Stations






























Interactive Weather Map
Tropical Storm Tracking
New forecast layout! Learn more

10-Day Weather Forecast

Advertisements
Track Severe Weather on mobile